Leyendecker II PSRC

2021-04-18 21:50:00

  • imperial
Date Time Air Temperature Relative Humidity Dewpoint Windchill Heat Index Wind Speed Wind Dir. Rain Solar Radiation Soil Temperature
2m 2m 3m 3m 10cm
US/Mountain F % F F F MPH deg in MJ/m^2 F
max avg avg
2021-04-17 22:00:00 51.5 40.8 28.5 51.5 51.5 8.3 17.1 12.5 113.3 103.1 0.00 0.0000000 62.2
2021-04-17 22:05:00 51.4 40.6 28.2 51.4 51.4 11.5 21.0 12.6 98.7 103.5 0.00 0.0000000 62.2
2021-04-17 22:10:00 51.3 40.7 28.2 51.3 51.3 10.1 18.1 12.4 106.7 108.8 0.00 0.0000000 62.2
2021-04-17 22:15:00 51.2 41.7 28.7 51.2 51.2 11.0 12.4 9.3 117.4 103.9 0.00 0.0000000 62.1
2021-04-17 22:20:00 51.0 40.9 28.1 51.0 51.0 17.6 19.8 11.2 125.5 103.0 0.00 0.0000000 62.1
2021-04-17 22:25:00 50.9 41.5 28.4 50.9 50.9 16.4 22.3 14.1 120.3 101.9 0.00 0.0000000 62.1
2021-04-17 22:30:00 50.8 42.5 28.8 50.8 50.8 12.4 15.8 12.3 93.7 90.6 0.00 0.0000000 62.0
2021-04-17 22:35:00 50.6 42.4 28.5 50.6 50.6 11.0 16.7 9.7 116.8 89.7 0.00 0.0000000 62.0
2021-04-17 22:40:00 50.2 42.6 28.3 50.2 50.2 11.2 14.4 6.2 84.5 77.2 0.00 0.0000000 62.0
2021-04-17 22:45:00 50.2 42.4 28.2 50.2 50.2 11.0 18.1 11.7 102.9 91.4 0.00 0.0000000 62.0
2021-04-17 22:50:00 50.3 41.8 27.9 50.3 50.3 17.6 17.6 12.8 91.3 95.9 0.00 0.0000000 61.9
2021-04-17 22:55:00 50.3 42.3 28.2 50.3 50.3 16.0 16.5 11.5 102.7 87.3 0.00 0.0000000 61.9
2021-04-17 23:00:00 50.2 41.8 27.8 50.2 50.2 11.3 19.0 13.3 104.6 98.0 0.00 0.0000000 61.8
2021-04-17 23:05:00 50.3 41.1 27.5 50.3 50.3 14.6 19.2 14.6 76.7 103.6 0.00 0.0000000 61.8
2021-04-17 23:10:00 50.3 41.8 27.9 50.3 50.3 13.1 23.3 15.3 118.0 103.7 0.00 0.0000000 61.8
2021-04-17 23:15:00 50.2 41.5 27.7 50.2 50.2 15.6 21.2 15.2 112.8 111.5 0.00 0.0000000 61.8
2021-04-17 23:20:00 50.3 41.1 27.6 50.3 50.3 18.7 25.3 16.4 86.6 106.1 0.00 0.0000000 61.7
2021-04-17 23:25:00 50.6 40.8 27.7 50.6 50.6 13.9 20.8 16.2 122.1 109.0 0.00 0.0000000 61.7
2021-04-17 23:30:00 50.7 41.0 27.8 50.7 50.7 21.4 21.4 14.4 135.7 105.8 0.00 0.0000000 61.7
2021-04-17 23:35:00 50.6 41.1 27.8 50.6 50.6 18.1 22.6 17.5 115.1 101.9 0.00 0.0000000 61.6
2021-04-17 23:40:00 50.4 40.8 27.4 50.4 50.4 18.5 18.7 14.5 105.6 101.0 0.00 0.0000000 61.6
2021-04-17 23:45:00 50.6 40.2 27.2 50.6 50.6 16.0 22.4 16.1 87.1 100.2 0.00 0.0000000 61.6
2021-04-17 23:50:00 50.7 39.6 27.0 50.7 50.7 13.5 18.3 14.3 104.8 107.8 0.00 0.0000000 61.5
2021-04-17 23:55:00 50.6 40.2 27.2 50.6 50.6 11.5 20.1 13.7 82.8 104.8 0.00 0.0000000 61.5
2021-04-18 00:00:00 50.7 39.8 27.1 50.7 50.7 10.1 22.1 15.1 118.6 106.8 0.00 0.0000000 61.5
2021-04-18 00:05:00 50.8 39.0 26.7 50.8 50.8 15.5 18.5 12.9 117.9 109.0 0.00 0.0000000 61.5
2021-04-18 00:10:00 50.9 38.5 26.5 50.9 50.9 13.7 22.3 15.6 93.8 109.1 0.00 0.0000000 61.4
2021-04-18 00:15:00 50.9 39.3 26.9 50.9 50.9 15.3 19.6 14.3 120.3 94.8 0.00 0.0000000 61.4
2021-04-18 00:20:00 50.8 38.6 26.4 50.8 50.8 11.9 18.1 13.9 119.7 100.4 0.00 0.0000000 61.4
2021-04-18 00:25:00 50.7 38.1 26.0 50.7 50.7 21.9 23.2 16.7 90.1 104.0 0.00 0.0000000 61.4
2021-04-18 00:30:00 50.5 38.9 26.4 50.5 50.5 16.4 20.3 15.3 92.0 98.0 0.00 0.0000000 61.3
2021-04-18 00:35:00 50.4 38.1 25.8 50.4 50.4 17.1 19.4 14.7 87.3 91.2 0.00 0.0000000 61.3
2021-04-18 00:40:00 50.4 39.1 26.4 50.4 50.4 11.0 20.5 12.7 76.4 85.9 0.00 0.0000000 61.3
2021-04-18 00:45:00 50.5 37.9 25.7 50.5 50.5 16.2 19.8 13.1 116.8 96.1 0.00 0.0000000 61.2
2021-04-18 00:50:00 50.4 38.7 26.1 50.4 50.4 14.9 17.4 13.2 114.0 97.1 0.00 0.0000000 61.2
2021-04-18 00:55:00 50.5 38.1 25.9 50.5 50.5 18.5 19.6 13.6 86.6 93.0 0.00 0.0000000 61.2
2021-04-18 01:00:00 50.3 39.1 26.4 50.3 50.3 12.1 16.0 12.7 89.4 96.6 0.00 0.0000000 61.1
2021-04-18 01:05:00 50.3 38.6 26.0 50.3 50.3 14.7 17.1 12.8 95.3 100.7 0.00 0.0000000 61.1
2021-04-18 01:10:00 50.4 38.0 25.7 50.4 50.4 15.5 18.5 13.6 70.5 96.9 0.00 0.0000000 61.1
2021-04-18 01:15:00 50.2 38.2 25.7 50.2 50.2 16.2 18.9 14.2 79.6 106.4 0.00 0.0000000 61.1
2021-04-18 01:20:00 49.8 39.3 26.0 46.3 49.8 8.5 18.5 11.5 118.8 98.1 0.00 0.0000000 61.1
2021-04-18 01:25:00 49.8 39.2 26.0 45.4 49.8 11.3 17.4 12.0 89.4 90.1 0.00 0.0000000 61.0
2021-04-18 01:30:00 49.9 38.1 25.3 45.0 49.9 13.0 18.1 12.3 50.4 88.7 0.00 0.0000000 61.0
2021-04-18 01:35:00 50.0 38.5 25.7 50.0 50.0 13.1 18.3 14.3 118.6 92.8 0.00 0.0000000 61.0
2021-04-18 01:40:00 49.8 39.2 26.0 45.8 49.8 10.1 19.8 13.0 150.2 98.6 0.00 0.0000000 60.9
2021-04-18 01:45:00 49.8 39.1 25.9 45.7 49.8 10.5 18.1 10.5 95.2 98.9 0.00 0.0000000 60.9
2021-04-18 01:50:00 49.6 39.0 25.6 44.5 49.6 13.7 17.8 10.7 96.3 88.9 0.00 0.0000000 60.9
2021-04-18 01:55:00 49.5 38.7 25.3 44.2 49.5 13.9 16.0 11.6 103.0 87.5 0.00 0.0000000 60.9
2021-04-18 02:00:00 49.5 38.6 25.3 43.8 49.5 15.6 15.6 10.1 80.8 95.8 0.00 0.0000000 60.8
2021-04-18 02:05:00 49.6 39.3 25.8 44.2 49.6 14.7 18.5 13.2 98.7 98.4 0.00 0.0000000 60.8
2021-04-18 02:10:00 49.3 41.5 26.9 44.0 49.3 14.2 16.5 12.9 108.8 96.2 0.00 0.0000000 60.8
2021-04-18 02:15:00 49.0 42.2 27.0 44.3 49.0 11.3 17.1 11.1 125.7 102.9 0.00 0.0000000 60.8
2021-04-18 02:20:00 48.7 44.7 28.1 44.9 48.7 8.7 14.9 11.3 102.5 108.6 0.00 0.0000000 60.7
2021-04-18 02:25:00 48.3 46.9 28.9 41.6 48.3 18.5 19.9 11.8 81.8 104.7 0.00 0.0000000 60.7
2021-04-18 02:30:00 47.5 53.2 31.3 42.2 47.5 12.2 21.0 15.9 86.1 103.8 0.00 0.0000000 60.7
2021-04-18 02:35:00 46.5 59.8 33.3 40.9 46.5 12.4 20.5 13.5 132.0 107.1 0.00 0.0000000 60.7
2021-04-18 02:40:00 46.2 58.6 32.5 40.2 46.2 13.3 17.1 13.1 89.7 105.0 0.00 0.0000000 60.6
2021-04-18 02:45:00 46.0 59.2 32.6 40.0 46.0 13.5 17.1 11.4 109.7 105.3 0.00 0.0000000 60.6
2021-04-18 02:50:00 45.9 58.8 32.3 39.4 45.9 15.1 16.0 11.9 107.0 102.5 0.01 0.0000000 60.6
2021-04-18 02:55:00 45.9 59.7 32.7 40.4 45.9 11.5 19.8 13.0 114.4 99.2 0.00 0.0000000 60.6
2021-04-18 03:00:00 45.9 58.1 32.0 39.6 45.9 14.2 17.8 13.7 75.9 106.6 0.00 0.0000000 60.5
2021-04-18 03:05:00 45.9 59.4 32.6 39.1 45.9 16.0 20.5 13.7 74.2 100.2 0.00 0.0000000 60.5
2021-04-18 03:10:00 45.8 59.1 32.3 39.4 45.8 14.4 19.0 13.1 95.4 102.5 0.00 0.0000000 60.5
2021-04-18 03:15:00 45.9 61.1 33.2 41.8 45.9 7.8 19.8 13.8 82.9 97.9 0.00 0.0000000 60.5
2021-04-18 03:20:00 45.7 62.0 33.4 41.8 45.7 7.4 16.2 10.6 75.4 88.6 0.00 0.0000000 60.5
2021-04-18 03:25:00 45.7 60.3 32.7 40.4 45.7 10.8 18.5 12.2 88.9 97.9 0.00 0.0000000 60.4
2021-04-18 03:30:00 45.7 60.2 32.7 39.6 45.7 13.5 18.5 13.0 92.7 90.6 0.00 0.0000000 60.4
2021-04-18 03:35:00 45.7 62.1 33.4 42.5 45.7 6.0 18.7 12.1 108.7 94.7 0.00 0.0000000 60.4
2021-04-18 03:40:00 45.6 59.9 32.5 39.2 45.6 14.2 23.5 13.3 90.1 91.5 0.00 0.0000000 60.4
2021-04-18 03:45:00 45.7 59.1 32.2 39.8 45.7 12.6 19.6 14.0 96.4 90.0 0.00 0.0000000 60.4
2021-04-18 03:50:00 45.9 56.8 31.5 40.6 45.9 11.0 16.5 12.0 77.5 97.5 0.00 0.0000000 60.3
2021-04-18 03:55:00 46.2 54.0 30.5 39.1 46.2 17.8 19.4 13.8 94.1 98.4 0.00 0.0000000 60.3
2021-04-18 04:00:00 46.3 54.4 30.7 41.1 46.3 10.8 17.2 12.8 98.4 99.7 0.00 0.0000000 60.3
2021-04-18 04:05:00 46.3 53.6 30.4 40.4 46.3 13.0 16.0 11.7 109.2 96.6 0.00 0.0000000 60.3
2021-04-18 04:10:00 46.4 54.6 30.9 40.6 46.4 13.0 21.5 12.8 117.0 94.0 0.00 0.0000000 60.3
2021-04-18 04:15:00 46.5 53.6 30.5 39.8 46.5 16.0 20.6 14.9 80.5 95.8 0.00 0.0000000 60.2
2021-04-18 04:20:00 46.3 55.2 31.1 40.7 46.3 12.1 17.2 11.8 100.7 95.7 0.00 0.0000000 60.2
2021-04-18 04:25:00 46.4 54.1 30.6 40.5 46.4 13.1 18.1 13.5 92.6 97.4 0.00 0.0000000 60.2
2021-04-18 04:30:00 46.3 54.8 30.9 40.2 46.3 13.9 13.9 10.9 141.3 91.3 0.00 0.0000000 60.2
2021-04-18 04:35:00 46.4 54.1 30.7 39.8 46.4 15.8 21.2 13.3 83.1 95.3 0.00 0.0000000 60.1
2021-04-18 04:40:00 46.4 54.7 31.0 40.9 46.4 12.1 17.2 13.4 101.2 94.4 0.00 0.0000000 60.1
2021-04-18 04:45:00 46.5 53.6 30.6 41.1 46.5 11.7 18.0 11.9 96.8 92.4 0.00 0.0000000 60.1
2021-04-18 04:50:00 46.4 54.6 31.0 41.2 46.4 11.0 16.2 11.6 93.3 90.3 0.00 0.0000000 60.1
2021-04-18 04:55:00 46.6 55.5 31.5 41.8 46.6 10.1 17.1 12.7 95.5 90.1 0.00 0.0000000 60.1
2021-04-18 05:00:00 46.5 53.8 30.7 41.3 46.5 11.2 18.7 11.6 114.3 91.2 0.00 0.0000000 60.0
2021-04-18 05:05:00 46.4 54.7 31.0 41.5 46.4 10.3 19.4 10.2 94.8 94.8 0.00 0.0000000 60.0
2021-04-18 05:10:00 46.4 53.0 30.2 39.8 46.4 16.0 17.4 13.7 82.1 100.1 0.00 0.0000000 60.0
2021-04-18 05:15:00 46.4 53.7 30.5 40.3 46.4 14.0 17.2 12.9 95.7 101.5 0.00 0.0000000 60.0
2021-04-18 05:20:00 46.3 55.1 31.0 41.7 46.3 9.2 14.4 10.6 84.5 96.8 0.00 0.0000000 60.0
2021-04-18 05:25:00 46.1 55.1 30.8 40.3 46.1 12.4 12.8 10.3 108.2 92.2 0.00 0.0000000 59.9
2021-04-18 05:30:00 46.1 55.6 31.1 41.6 46.1 8.8 16.2 11.9 131.0 105.6 0.00 0.0000000 59.9
2021-04-18 05:35:00 46.1 55.3 31.0 39.2 46.1 16.7 16.7 11.9 120.6 102.7 0.00 0.0000000 59.9
2021-04-18 05:40:00 46.0 56.0 31.2 41.6 46.0 8.7 15.6 12.3 122.3 103.7 0.00 0.0000000 59.9
2021-04-18 05:45:00 45.9 56.3 31.2 40.8 45.9 10.5 14.0 10.9 97.2 100.7 0.00 0.0000000 59.9
2021-04-18 05:50:00 45.9 58.0 32.0 41.1 45.9 9.7 17.2 11.7 77.0 91.3 0.00 0.0000000 59.8
2021-04-18 05:55:00 45.9 57.6 31.8 40.6 45.9 11.0 12.4 9.2 82.7 89.9 0.00 0.0000000 59.8
2021-04-18 06:00:00 45.9 56.9 31.5 39.0 45.9 16.5 19.6 10.7 90.2 93.8 0.00 0.0000000 59.8
2021-04-18 06:05:00 45.9 57.5 31.8 42.1 45.9 7.2 18.9 11.5 86.3 87.1 0.00 0.0000000 59.8
2021-04-18 06:10:00 45.9 58.3 32.0 40.9 45.9 10.1 12.4 8.8 70.2 90.7 0.00 0.0000000 59.8
2021-04-18 06:15:00 45.7 59.2 32.3 40.2 45.7 11.2 16.7 10.3 87.8 91.6 0.00 0.0000000 59.7
2021-04-18 06:20:00 45.6 58.8 32.0 40.0 45.6 11.5 13.9 9.9 89.8 86.5 0.00 0.0000000 59.7
2021-04-18 06:25:00 45.5 59.5 32.2 40.2 45.5 10.6 15.8 10.9 90.4 89.0 0.00 0.0000000 59.7
2021-04-18 06:30:00 45.5 59.1 32.1 41.2 45.5 8.1 12.4 9.6 84.9 92.6 0.00 0.0000235 59.7
2021-04-18 06:35:00 45.4 58.6 31.8 40.1 45.4 10.6 14.2 11.2 75.8 91.1 0.00 0.0002540 59.7
2021-04-18 06:40:00 45.4 59.8 32.2 40.7 45.4 9.0 16.2 12.1 78.5 91.3 0.00 0.0006718 59.7
2021-04-18 06:45:00 45.3 59.0 31.8 39.4 45.3 12.4 19.4 13.5 80.0 93.8 0.00 0.0012967 59.6
2021-04-18 06:50:00 45.3 58.1 31.5 39.3 45.3 12.8 16.2 11.7 89.7 94.5 0.00 0.0023511 59.6
2021-04-18 06:55:00 45.5 58.6 31.8 40.7 45.5 9.4 18.0 12.2 93.9 94.9 0.00 0.0032514 59.6
2021-04-18 07:00:00 45.6 57.7 31.5 39.2 45.6 14.0 15.6 11.3 89.7 97.7 0.00 0.0042388 59.6
2021-04-18 07:05:00 45.6 58.3 31.8 39.7 45.6 12.8 15.6 11.1 122.8 100.4 0.00 0.0060932 59.6
2021-04-18 07:10:00 45.7 58.5 31.9 39.7 45.7 13.0 16.5 10.0 119.7 89.7 0.00 0.0069838 59.6
2021-04-18 07:15:00 45.8 58.8 32.2 43.8 45.8 4.2 16.0 10.4 82.0 90.5 0.00 0.0089723 59.5
2021-04-18 07:20:00 45.9 58.2 32.1 42.4 45.9 6.7 14.7 10.3 114.9 88.4 0.00 0.0099276 59.5
2021-04-18 07:25:00 46.1 58.0 32.2 40.9 46.1 10.8 14.7 10.3 75.8 90.9 0.00 0.0135270 59.5
2021-04-18 07:30:00 46.2 56.9 31.8 40.0 46.2 14.2 16.7 11.0 102.1 95.0 0.00 0.0161478 59.5
2021-04-18 07:35:00 46.3 57.5 32.1 40.7 46.3 12.2 21.0 13.6 108.7 97.4 0.00 0.0138299 59.5
2021-04-18 07:40:00 46.4 58.1 32.5 42.1 46.4 8.7 19.8 12.6 81.1 96.6 0.00 0.0133930 59.5
2021-04-18 07:45:00 46.7 56.1 31.8 41.8 46.7 10.3 15.5 10.3 112.5 97.3 0.00 0.0136646 59.4
2021-04-18 07:50:00 46.8 55.6 31.7 41.3 46.8 12.1 15.6 10.8 130.4 89.8 0.00 0.0153244 59.4
2021-04-18 07:55:00 47.0 57.3 32.6 43.5 47.0 7.1 14.9 10.4 109.6 99.2 0.00 0.0156758 59.4
2021-04-18 08:00:00 46.9 55.7 31.9 40.9 46.9 14.2 15.3 11.0 106.8 88.2 0.00 0.0172849 59.4
2021-04-18 08:05:00 46.9 56.6 32.2 41.4 46.9 12.1 16.2 12.4 93.0 88.6 0.00 0.0211032 59.4
2021-04-18 08:10:00 47.0 55.2 31.7 41.5 47.0 12.4 18.5 13.0 71.8 93.0 0.00 0.0259389 59.4
2021-04-18 08:15:00 47.2 55.4 32.0 43.3 47.2 8.0 16.0 10.9 92.8 87.0 0.00 0.0308736 59.4
2021-04-18 08:20:00 47.2 54.0 31.4 40.9 47.2 15.1 19.0 11.8 86.6 82.8 0.00 0.0349486 59.4
2021-04-18 08:25:00 47.3 55.0 31.9 41.8 47.3 12.6 16.4 10.8 61.6 85.9 0.00 0.0363799 59.3
2021-04-18 08:30:00 47.3 54.4 31.7 42.4 47.3 10.8 14.0 9.8 101.2 88.2 0.00 0.0408149 59.3
2021-04-18 08:35:00 47.4 55.8 32.4 43.0 47.4 9.6 18.0 12.0 97.7 86.6 0.00 0.0419605 59.3
2021-04-18 08:40:00 47.8 54.7 32.3 43.3 47.8 9.9 13.1 10.3 111.8 94.5 0.00 0.0461335 59.3
2021-04-18 08:45:00 47.9 53.6 31.9 42.6 47.9 12.8 16.9 10.4 87.9 96.2 0.00 0.0380674 59.3
2021-04-18 08:50:00 48.0 52.9 31.6 43.0 48.0 11.7 15.1 12.0 106.5 104.8 0.00 0.0569329 59.3
2021-04-18 08:55:00 48.0 54.8 32.5 43.9 48.0 9.0 18.0 12.0 92.4 96.7 0.00 0.0642090 59.3
2021-04-18 09:00:00 48.2 52.9 31.8 43.6 48.2 10.6 18.0 11.2 93.2 94.4 0.00 0.0676591 59.3
2021-04-18 09:05:00 48.3 54.1 32.5 44.5 48.3 8.5 14.7 11.0 60.6 89.4 0.00 0.0671425 59.2
2021-04-18 09:10:00 48.4 52.8 31.9 43.0 48.4 13.1 13.9 10.4 92.6 92.9 0.00 0.0765576 59.2
2021-04-18 09:15:00 48.6 51.8 31.7 43.7 48.6 11.9 13.9 10.4 80.1 87.9 0.00 0.0742765 59.2
2021-04-18 09:20:00 48.7 52.8 32.3 44.1 48.7 11.2 14.4 10.0 90.4 93.8 0.00 0.0745615 59.2
2021-04-18 09:25:00 48.5 52.5 31.9 43.8 48.5 11.0 17.2 12.9 101.2 92.4 0.00 0.0794614 59.2
2021-04-18 09:30:00 48.5 53.5 32.3 44.6 48.5 8.7 15.1 10.1 96.2 87.0 0.00 0.0808434 59.2
2021-04-18 09:35:00 49.0 51.0 31.6 43.7 49.0 13.3 16.4 10.2 84.5 93.6 0.00 0.0841671 59.2
2021-04-18 09:40:00 48.8 54.0 32.9 44.2 48.8 11.3 13.9 9.9 90.5 80.3 0.00 0.0828166 59.2
2021-04-18 09:45:00 48.8 53.4 32.6 46.0 48.8 6.3 14.4 10.7 83.5 88.7 0.00 0.0803888 59.2
2021-04-18 09:50:00 48.8 52.4 32.1 46.2 48.8 6.0 15.8 10.2 72.2 86.3 0.00 0.0887921 59.2
2021-04-18 09:55:00 49.1 52.4 32.4 46.7 49.1 5.6 15.3 9.5 84.4 85.1 0.00 0.0948946 59.2
2021-04-18 10:00:00 49.0 52.0 32.2 43.9 49.0 13.0 15.3 9.1 85.1 83.4 0.00 0.0979336 59.2
2021-04-18 10:05:00 49.5 50.6 31.9 44.4 49.5 13.3 14.4 9.1 98.7 87.6 0.00 0.1052596 59.2
2021-04-18 10:10:00 49.5 53.2 33.2 44.8 49.5 12.1 16.7 10.9 111.5 93.2 0.00 0.1061327 59.2
2021-04-18 10:15:00 49.4 50.3 31.7 44.0 49.4 14.7 18.9 12.6 118.0 91.5 0.00 0.1169361 59.2
2021-04-18 10:20:00 49.9 52.9 33.4 46.9 49.9 7.4 18.5 11.6 92.9 89.6 0.00 0.1129410 59.2
2021-04-18 10:25:00 49.9 51.0 32.5 45.3 49.9 12.2 17.6 12.9 77.1 91.6 0.00 0.1282677 59.2
2021-04-18 10:30:00 50.8 49.7 32.6 50.8 50.8 14.0 14.0 9.7 108.5 90.6 0.00 0.1745737 59.2
2021-04-18 10:35:00 50.3 51.5 33.1 50.3 50.3 6.3 15.8 10.9 107.5 89.7 0.00 0.1469611 59.2
2021-04-18 10:40:00 50.7 49.6 32.6 50.7 50.7 9.7 13.5 9.1 56.2 78.5 0.00 0.1603816 59.2
2021-04-18 10:45:00 51.5 48.0 32.4 51.5 51.5 9.4 12.6 8.4 34.9 82.7 0.00 0.1885978 59.2
2021-04-18 10:50:00 52.1 48.6 33.4 52.1 52.1 13.7 16.2 11.5 114.9 100.2 0.00 0.2262482 59.2
2021-04-18 10:55:00 51.1 48.0 32.1 51.1 51.1 11.9 16.0 12.0 83.0 91.0 0.00 0.1393506 59.2
2021-04-18 11:00:00 51.7 48.1 32.6 51.7 51.7 11.2 15.5 11.7 94.0 101.2 0.00 0.1825247 59.2
2021-04-18 11:05:00 52.1 45.9 31.9 52.1 52.1 10.8 15.1 11.8 102.9 97.4 0.00 0.2011380 59.2
2021-04-18 11:10:00 53.4 45.3 32.7 53.4 53.4 13.1 14.6 9.5 95.8 95.7 0.00 0.1999502 59.2
2021-04-18 11:15:00 53.7 45.5 33.1 53.7 53.7 11.5 15.8 11.8 89.8 98.9 0.00 0.2418064 59.2
2021-04-18 11:20:00 52.7 46.6 32.8 52.7 52.7 12.8 18.3 11.1 94.9 95.2 0.00 0.1723786 59.2
2021-04-18 11:25:00 52.8 46.3 32.7 52.8 52.8 8.3 16.4 11.8 110.6 104.8 0.00 0.1761797 59.2
2021-04-18 11:30:00 52.8 48.0 33.6 52.8 52.8 6.9 14.2 9.7 101.5 86.7 0.00 0.1849662 59.3
2021-04-18 11:35:00 53.2 46.9 33.5 53.2 53.2 13.5 15.1 11.3 84.8 91.8 0.00 0.2772499 59.3
2021-04-18 11:40:00 54.2 44.9 33.3 54.2 54.2 12.2 16.2 10.5 88.3 91.5 0.00 0.3212008 59.3
2021-04-18 11:45:00 55.5 41.8 32.7 55.5 55.5 9.4 17.1 11.8 111.4 113.1 0.00 0.3363023 59.3
2021-04-18 11:50:00 54.2 43.2 32.3 54.2 54.2 12.4 20.8 12.6 122.1 110.6 0.00 0.2599033 59.3
2021-04-18 11:55:00 55.1 43.3 33.2 55.1 55.1 8.8 14.9 11.4 111.6 112.3 0.00 0.3297071 59.3
2021-04-18 12:00:00 55.0 45.5 34.3 55.0 55.0 11.2 18.0 12.1 96.8 119.9 0.00 0.3515632 59.4
2021-04-18 12:05:00 55.2 41.8 32.4 55.2 55.2 13.5 18.5 12.6 100.6 103.6 0.00 0.3580739 59.4
2021-04-18 12:10:00 55.9 42.1 33.2 55.9 55.9 9.2 18.7 12.2 136.2 103.3 0.00 0.3576699 59.4
2021-04-18 12:15:00 56.4 40.1 32.4 56.4 56.4 10.6 16.5 12.8 96.4 115.2 0.00 0.3580672 59.5
2021-04-18 12:20:00 56.8 40.4 32.9 56.8 56.8 16.0 18.1 13.0 135.3 111.3 0.00 0.3527710 59.5
2021-04-18 12:25:00 55.5 43.9 33.9 55.5 55.5 7.4 18.0 13.4 146.0 104.9 0.00 0.2817482 59.5
2021-04-18 12:30:00 56.8 40.2 32.9 56.8 56.8 17.1 17.1 12.0 90.5 112.8 0.00 0.3694890 59.5
2021-04-18 12:35:00 56.2 42.4 33.6 56.2 56.2 14.9 17.8 11.5 109.3 95.2 0.00 0.3629043 59.6
2021-04-18 12:40:00 57.5 38.6 32.4 57.5 57.5 14.4 16.0 13.4 144.2 113.5 0.00 0.3508898 59.6
2021-04-18 12:45:00 57.1 39.3 32.5 57.1 57.1 10.8 17.6 12.3 121.0 104.3 0.00 0.3353952 59.6
2021-04-18 12:50:00 56.8 41.6 33.7 56.8 56.8 8.7 19.6 13.6 95.3 120.3 0.00 0.2532555 59.7
2021-04-18 12:55:00 56.6 40.2 32.6 56.6 56.6 15.6 16.9 12.4 114.4 116.9 0.00 0.3370259 59.7
2021-04-18 13:00:00 57.0 39.8 32.8 57.0 57.0 11.3 17.2 12.8 114.3 115.5 0.00 0.3292992 59.8
2021-04-18 13:05:00 57.6 38.6 32.5 57.6 57.6 12.1 18.9 13.7 134.5 112.4 0.00 0.3288346 59.8
2021-04-18 13:10:00 58.2 39.2 33.4 58.2 58.2 11.0 18.1 12.0 134.0 120.0 0.00 0.3260805 59.9
2021-04-18 13:15:00 57.2 40.1 33.1 57.2 57.2 11.5 17.1 12.5 88.8 102.6 0.00 0.3024675 59.9
2021-04-18 13:20:00 58.1 37.5 32.3 58.1 58.1 10.3 15.3 11.6 78.8 104.1 0.00 0.3290497 60.0
2021-04-18 13:25:00 57.1 39.7 32.8 57.1 57.1 13.1 18.5 12.0 92.9 93.5 0.00 0.3006418 60.0
2021-04-18 13:30:00 57.7 40.3 33.7 57.7 57.7 13.1 18.9 11.0 86.9 93.2 0.00 0.3290750 60.1
2021-04-18 13:35:00 57.8 38.9 33.0 57.8 57.8 6.9 22.8 11.9 103.2 104.2 0.00 0.3360793 60.2
2021-04-18 13:40:00 58.0 40.5 34.1 58.0 58.0 9.7 15.3 10.8 135.3 101.4 0.00 0.3513635 60.2
2021-04-18 13:45:00 58.4 38.7 33.4 58.4 58.4 10.5 17.4 13.3 118.3 123.2 0.00 0.2921754 60.2
2021-04-18 13:50:00 59.6 35.8 32.5 59.6 59.6 13.0 16.5 12.7 104.0 118.1 0.00 0.3528340 60.3
2021-04-18 13:55:00 59.2 36.6 32.6 59.2 59.2 12.6 16.0 11.9 102.5 117.3 0.00 0.3601243 60.4
2021-04-18 14:00:00 60.0 36.8 33.5 60.0 60.0 10.8 13.1 9.7 120.7 109.0 0.00 0.3462114 60.4
2021-04-18 14:05:00 59.5 37.1 33.2 59.5 59.5 6.5 15.3 11.4 82.3 115.0 0.00 0.3404813 60.5
2021-04-18 14:10:00 59.7 36.4 33.0 59.7 59.7 7.1 18.7 11.5 141.5 115.2 0.00 0.3471325 60.6
2021-04-18 14:15:00 59.4 37.3 33.3 59.4 59.4 12.4 15.3 11.1 85.2 123.6 0.00 0.3246960 60.6
2021-04-18 14:20:00 59.8 36.1 32.8 59.8 59.8 10.6 16.4 11.8 109.3 101.1 0.00 0.3432399 60.7
2021-04-18 14:25:00 60.1 35.5 32.7 60.1 60.1 13.1 17.6 11.8 131.7 110.3 0.00 0.2948093 60.7
2021-04-18 14:30:00 59.7 36.3 32.9 59.7 59.7 11.5 14.4 11.1 89.2 118.9 0.00 0.2575795 60.8
2021-04-18 14:35:00 59.3 37.1 33.0 59.3 59.3 9.4 16.7 9.3 74.9 109.2 0.00 0.2184723 60.9
2021-04-18 14:40:00 59.8 39.4 35.0 59.8 59.8 7.4 13.0 9.5 78.5 89.0 0.00 0.2966062 60.9
2021-04-18 14:45:00 60.0 38.1 34.4 60.0 60.0 7.4 13.3 9.2 96.0 91.6 0.00 0.2255154 61.0
2021-04-18 14:50:00 59.0 36.1 32.1 59.0 59.0 9.6 17.2 11.4 115.1 99.0 0.00 0.2044062 61.0
2021-04-18 14:55:00 59.0 36.6 32.5 59.0 59.0 12.1 16.5 11.7 101.9 116.9 0.00 0.1842663 61.1
2021-04-18 15:00:00 59.8 35.7 32.6 59.8 59.8 9.4 17.2 11.4 102.1 109.9 0.00 0.3311159 61.1
2021-04-18 15:05:00 59.8 35.2 32.3 59.8 59.8 11.3 15.8 10.3 110.0 102.1 0.00 0.1890667 61.2
2021-04-18 15:10:00 59.5 38.2 34.0 59.5 59.5 10.5 13.5 10.3 98.4 96.7 0.00 0.2345876 61.3
2021-04-18 15:15:00 59.3 35.2 31.8 59.3 59.3 10.5 16.9 10.5 134.0 103.0 0.00 0.2510648 61.3
2021-04-18 15:20:00 59.1 38.6 33.9 59.1 59.1 11.3 13.0 7.2 83.8 79.0 0.00 0.1472820 61.4
2021-04-18 15:25:00 59.8 35.5 32.5 59.8 59.8 9.0 13.0 8.6 124.9 86.9 0.00 0.2096566 61.4
2021-04-18 15:30:00 59.1 34.9 31.4 59.1 59.1 16.4 16.4 11.7 117.3 105.6 0.00 0.1853069 61.4
2021-04-18 15:35:00 60.0 35.8 32.8 60.0 60.0 12.2 15.5 11.9 90.4 106.1 0.00 0.2275553 61.5
2021-04-18 15:40:00 60.0 35.2 32.3 60.0 60.0 12.8 16.2 10.1 117.4 122.0 0.00 0.2312974 61.5
2021-04-18 15:45:00 60.0 35.2 32.4 60.0 60.0 10.3 16.0 11.4 118.6 118.6 0.00 0.1954040 61.5
2021-04-18 15:50:00 60.0 40.4 35.9 60.0 60.0 9.0 13.5 9.7 89.8 116.4 0.00 0.2386929 61.6
2021-04-18 15:55:00 60.6 34.4 32.3 60.6 60.6 8.0 15.5 9.4 107.9 110.1 0.00 0.2459980 61.6
2021-04-18 16:00:00 60.3 35.4 32.8 60.3 60.3 11.3 14.6 12.4 96.8 105.0 0.00 0.1636707 61.7
2021-04-18 16:05:00 59.2 36.7 32.7 59.2 59.2 9.0 15.8 11.4 87.0 105.6 0.00 0.1313739 61.7
2021-04-18 16:10:00 60.9 36.6 34.2 60.9 60.9 12.2 14.0 9.2 95.0 99.8 0.00 0.2179004 61.7
2021-04-18 16:15:00 59.4 35.1 31.8 59.4 59.4 13.5 14.7 10.8 119.1 102.3 0.00 0.0709311 61.8
2021-04-18 16:20:00 60.0 35.2 32.4 60.0 60.0 6.7 11.9 8.8 94.1 107.5 0.00 0.2219523 61.8
2021-04-18 16:25:00 59.8 35.7 32.6 59.8 59.8 11.0 16.0 11.0 78.7 96.8 0.00 0.1289111 61.8
2021-04-18 16:30:00 59.9 35.7 32.7 59.9 59.9 8.0 12.1 8.6 87.0 101.3 0.00 0.1682320 61.8
2021-04-18 16:35:00 60.0 34.1 31.6 60.0 60.0 9.2 15.3 10.2 118.9 114.4 0.00 0.1577438 61.8
2021-04-18 16:40:00 59.3 36.8 33.0 59.3 59.3 6.0 11.7 9.2 70.0 98.3 0.00 0.0973244 61.8
2021-04-18 16:45:00 60.3 35.4 32.8 60.3 60.3 11.3 12.4 8.1 104.0 88.9 0.00 0.2025318 61.9
2021-04-18 16:50:00 60.2 34.8 32.3 60.2 60.2 9.7 14.9 9.4 101.8 95.2 0.00 0.1153044 61.9
2021-04-18 16:55:00 60.4 37.7 34.4 60.4 60.4 9.9 13.5 9.3 90.5 100.2 0.00 0.1214986 61.9
2021-04-18 17:00:00 60.5 35.7 33.2 60.5 60.5 11.9 11.9 8.5 106.1 99.8 0.00 0.1650508 61.9
2021-04-18 17:05:00 60.7 36.2 33.7 60.7 60.7 3.3 13.7 7.4 87.0 92.5 0.00 0.1599481 61.9
2021-04-18 17:10:00 60.1 35.2 32.5 60.1 60.1 11.9 14.9 10.9 91.3 100.1 0.00 0.1190058 61.9
2021-04-18 17:15:00 60.3 34.3 32.0 60.3 60.3 12.1 15.6 10.4 102.3 107.7 0.00 0.1493959 61.9
2021-04-18 17:20:00 60.0 34.1 31.6 60.0 60.0 6.7 12.2 8.2 76.6 106.4 0.00 0.1418519 62.0
2021-04-18 17:25:00 60.5 34.1 32.0 60.5 60.5 8.5 12.4 8.0 117.4 102.3 0.00 0.1344879 61.9
2021-04-18 17:30:00 60.5 34.6 32.4 60.5 60.5 9.6 10.6 7.0 117.7 102.2 0.00 0.1305798 62.0
2021-04-18 17:35:00 60.1 34.0 31.6 60.1 60.1 7.4 14.9 10.7 95.1 108.7 0.00 0.1260868 62.0
2021-04-18 17:40:00 60.3 33.2 31.2 60.3 60.3 6.5 13.5 9.4 112.1 110.6 0.00 0.1177985 61.9
2021-04-18 17:45:00 60.4 36.7 33.8 60.4 60.4 4.9 12.1 7.5 93.1 103.5 0.00 0.1119484 62.0
2021-04-18 17:50:00 60.4 33.2 31.3 60.4 60.4 7.1 10.8 7.8 116.8 117.0 0.00 0.1077484 61.9
2021-04-18 17:55:00 60.6 33.8 31.9 60.6 60.6 3.3 7.1 4.3 136.2 82.4 0.00 0.1011090 62.0
2021-04-18 18:00:00 60.5 33.4 31.6 60.5 60.5 10.1 11.0 7.0 138.0 102.1 0.00 0.0940729 62.0
2021-04-18 18:05:00 60.1 33.3 31.1 60.1 60.1 9.2 11.2 8.3 104.5 109.4 0.00 0.0906133 62.0
2021-04-18 18:10:00 60.0 33.3 31.0 60.0 60.0 11.0 13.0 9.2 118.3 118.5 0.00 0.0859246 62.0
2021-04-18 18:15:00 60.0 33.8 31.3 60.0 60.0 8.7 10.1 8.0 89.2 110.7 0.00 0.0738089 62.0
2021-04-18 18:20:00 59.7 34.1 31.4 59.7 59.7 6.7 9.6 6.7 131.3 115.4 0.00 0.0707764 62.0
2021-04-18 18:25:00 59.9 33.4 31.0 59.9 59.9 5.5 8.8 6.0 110.7 111.5 0.00 0.0676861 62.0
2021-04-18 18:30:00 59.8 34.5 31.7 59.8 59.8 6.9 14.2 7.5 127.3 112.3 0.00 0.0624983 62.0
2021-04-18 18:35:00 59.8 34.5 31.8 59.8 59.8 7.4 9.6 7.3 103.4 118.5 0.00 0.0574649 62.0
2021-04-18 18:40:00 59.4 35.2 31.9 59.4 59.4 6.9 11.5 7.6 143.9 113.8 0.00 0.0520755 61.9
2021-04-18 18:45:00 59.4 35.3 32.0 59.4 59.4 9.7 10.6 7.1 115.8 125.6 0.00 0.0468584 61.9
2021-04-18 18:50:00 59.3 35.5 32.0 59.3 59.3 8.1 9.7 8.0 114.7 111.6 0.00 0.0421474 61.9
2021-04-18 18:55:00 59.1 36.4 32.4 59.1 59.1 6.7 8.8 5.7 129.4 125.2 0.00 0.0371953 61.9
2021-04-18 19:00:00 58.9 36.1 32.1 58.9 58.9 5.8 9.7 7.2 115.8 118.3 0.00 0.0326628 61.9
2021-04-18 19:05:00 58.6 36.2 31.9 58.6 58.6 8.1 12.2 8.0 112.2 122.7 0.00 0.0280943 61.9
2021-04-18 19:10:00 58.4 36.2 31.6 58.4 58.4 8.0 11.2 8.1 131.2 107.6 0.00 0.0230041 61.9
2021-04-18 19:15:00 58.1 38.3 32.8 58.1 58.1 7.1 9.9 7.7 71.4 99.9 0.00 0.0182175 61.8
2021-04-18 19:20:00 57.9 36.9 31.7 57.9 57.9 8.3 10.8 7.4 100.8 107.8 0.00 0.0133963 61.9
2021-04-18 19:25:00 57.6 37.2 31.7 57.6 57.6 8.8 10.6 8.4 109.5 110.7 0.00 0.0076005 61.8
2021-04-18 19:30:00 57.4 38.3 32.2 57.4 57.4 8.7 14.6 9.0 92.9 104.8 0.00 0.0027191 61.8
2021-04-18 19:35:00 57.1 39.3 32.6 57.1 57.1 7.8 12.1 8.1 92.3 101.7 0.00 0.0013100 61.8
2021-04-18 19:40:00 56.5 39.3 32.0 56.5 56.5 8.1 10.1 6.3 92.9 92.7 0.00 0.0002363 61.8
2021-04-18 19:45:00 56.6 39.0 31.9 56.6 56.6 9.6 11.3 8.5 91.0 92.9 0.00 0.0000003 61.8
2021-04-18 19:50:00 56.6 39.3 32.1 56.6 56.6 7.8 9.6 6.7 122.3 103.1 0.00 0.0000000 61.8
2021-04-18 19:55:00 56.2 39.6 32.0 56.2 56.2 9.4 9.7 7.3 102.4 100.8 0.00 0.0000000 61.7
2021-04-18 20:00:00 56.0 42.0 33.2 56.0 56.0 5.8 11.2 6.4 125.3 95.6 0.00 0.0000000 61.7
2021-04-18 20:05:00 56.1 40.5 32.3 56.1 56.1 6.3 10.6 8.0 112.8 94.3 0.00 0.0000000 61.7
2021-04-18 20:10:00 56.1 39.6 31.8 56.1 56.1 10.5 10.8 8.6 109.4 103.1 0.00 0.0000000 61.6
2021-04-18 20:15:00 56.1 39.4 31.8 56.1 56.1 8.8 10.3 8.1 122.1 111.2 0.00 0.0000000 61.6
2021-04-18 20:20:00 56.0 39.4 31.6 56.0 56.0 5.6 9.9 7.4 118.9 106.8 0.00 0.0000000 61.6
2021-04-18 20:25:00 55.9 40.0 31.9 55.9 55.9 7.6 11.3 7.3 101.9 111.1 0.00 0.0000000 61.6
2021-04-18 20:30:00 55.9 40.0 32.0 55.9 55.9 8.7 10.6 7.8 101.7 110.8 0.00 0.0000000 61.6
2021-04-18 20:35:00 55.6 40.5 32.0 55.6 55.6 9.2 14.0 7.5 111.4 117.4 0.00 0.0000000 61.5
2021-04-18 20:40:00 55.5 41.1 32.2 55.5 55.5 7.1 9.9 7.7 121.4 119.1 0.00 0.0000000 61.5
2021-04-18 20:45:00 55.2 41.6 32.3 55.2 55.2 7.1 9.9 7.7 120.7 122.6 0.00 0.0000000 61.5
2021-04-18 20:50:00 55.3 41.0 31.9 55.3 55.3 6.7 11.9 8.5 137.4 121.9 0.00 0.0000000 61.4
2021-04-18 20:55:00 55.2 41.1 31.9 55.2 55.2 8.1 11.5 8.8 120.0 123.1 0.00 0.0000000 61.4
2021-04-18 21:00:00 55.1 41.2 32.0 55.1 55.1 9.4 11.2 8.9 124.8 118.2 0.00 0.0000000 61.4
2021-04-18 21:05:00 55.1 40.8 31.7 55.1 55.1 9.4 13.5 9.7 114.2 117.7 0.00 0.0000000 61.4
2021-04-18 21:10:00 55.2 40.7 31.7 55.2 55.2 9.2 13.3 10.5 115.4 111.9 0.00 0.0000000 61.3
2021-04-18 21:15:00 55.0 41.3 31.8 55.0 55.0 7.8 12.2 8.6 115.7 120.6 0.00 0.0000000 61.3
2021-04-18 21:20:00 54.7 41.8 31.9 54.7 54.7 7.1 9.6 7.3 94.6 109.9 0.00 0.0000000 61.3
2021-04-18 21:25:00 55.0 41.2 31.8 55.0 55.0 9.9 12.2 8.9 122.5 115.7 0.00 0.0000000 61.3
2021-04-18 21:30:00 55.0 41.3 31.9 55.0 55.0 7.2 11.0 8.4 111.3 118.5 0.00 0.0000000 61.3
2021-04-18 21:35:00 55.0 41.3 31.9 55.0 55.0 10.6 10.6 8.1 135.0 113.7 0.00 0.0000000 61.2
2021-04-18 21:40:00 55.0 41.3 31.9 55.0 55.0 8.7 11.0 8.3 102.9 117.4 0.00 0.0000000 61.2
2021-04-18 21:45:00 54.8 41.7 32.0 54.8 54.8 7.8 10.3 7.6 120.7 120.3 0.00 0.0000000 61.2
2021-04-18 21:50:00 54.8 41.6 31.9 54.8 54.8 8.0 11.3 8.8 103.8 118.4 0.00 0.0000000 61.1

Data is courtesy of the NM Climate Center. DO NOT USE IN LEGAL PROCEEDINGS.